Time;durP1;ratioP1;P1;durP2;ratioP2;P2;SDS_P1;SDS_P2;PMS_P1;PMS_P2;Temp;Humidity;BMP_temperature;BMP_pressure;BME280_temperature;BME280_humidity;BME280_pressure;Samples;Min_cycle;Max_cycle;Signal;HPM_P1;HPM_P2
2022/09/28 00:01:20;;;;;;;10.83;2.27;;;9.30;99.90;;;;;;5068709;28;20390;-81
2022/09/28 00:04:05;;;;;;;3.63;2.30;;;9.30;99.90;;;;;;5052399;28;20440;-82
2022/09/28 00:06:50;;;;;;;2.93;2.17;;;9.20;99.90;;;;;;5068016;28;20380;-80
2022/09/28 00:09:37;;;;;;;3.40;2.63;;;9.20;99.90;;;;;;5068832;28;20744;-81
2022/09/28 00:12:21;;;;;;;2.63;2.23;;;9.00;99.90;;;;;;5013268;28;20378;-79
2022/09/28 00:15:07;;;;;;;2.67;2.43;;;8.90;99.90;;;;;;5025905;28;20803;-79
2022/09/28 00:17:51;;;;;;;2.40;2.30;;;9.00;99.90;;;;;;5026754;28;20395;-79
2022/09/28 00:20:36;;;;;;;2.00;1.90;;;9.00;99.90;;;;;;5026491;28;20435;-79
2022/09/28 00:23:20;;;;;;;4.60;2.50;;;8.90;99.90;;;;;;5012897;28;20394;-78
2022/09/28 00:26:05;;;;;;;2.07;1.90;;;8.90;99.90;;;;;;5026497;28;20402;-78
2022/09/28 00:28:54;;;;;;;5.13;2.47;;;8.80;99.90;;;;;;5026055;28;20451;-81
2022/09/28 00:31:38;;;;;;;2.07;1.97;;;8.60;99.90;;;;;;5026458;28;20419;-80
2022/09/28 00:34:23;;;;;;;2.67;2.47;;;8.60;99.90;;;;;;5026110;28;20453;-81
2022/09/28 00:37:08;;;;;;;12.37;2.60;;;8.50;99.90;;;;;;5024966;28;20491;-81
2022/09/28 00:39:53;;;;;;;3.03;2.57;;;8.50;99.90;;;;;;5023882;28;20476;-81
2022/09/28 00:42:37;;;;;;;2.70;2.40;;;8.60;99.90;;;;;;5038471;28;20484;-80
2022/09/28 00:45:25;;;;;;;2.97;2.77;;;8.70;99.90;;;;;;5066313;28;20460;-81
2022/09/28 00:48:10;;;;;;;3.40;2.20;;;8.60;99.90;;;;;;5066652;28;20840;-80
2022/09/28 00:50:58;;;;;;;3.07;2.87;;;8.60;99.90;;;;;;5067644;28;20394;-81
2022/09/28 00:53:44;;;;;;;2.53;2.33;;;8.50;99.90;;;;;;5068861;28;20382;-81
2022/09/28 00:56:33;;;;;;;3.90;2.47;;;8.50;99.90;;;;;;5073775;28;20433;-78
2022/09/28 00:59:18;;;;;;;2.23;2.10;;;8.40;99.90;;;;;;5076895;28;20497;-79
2022/09/28 01:02:03;;;;;;;4.53;2.53;;;8.40;99.90;;;;;;5075418;28;20457;-79
2022/09/28 01:04:49;;;;;;;3.10;2.90;;;8.50;99.90;;;;;;5076014;28;20424;-79
2022/09/28 01:07:34;;;;;;;4.47;2.67;;;8.40;99.90;;;;;;5067609;28;20382;-81
2022/09/28 01:10:19;;;;;;;3.00;2.70;;;8.40;99.90;;;;;;5066918;28;20398;-80
2022/09/28 01:13:04;;;;;;;3.07;2.80;;;8.40;99.90;;;;;;5067134;28;20449;-80
2022/09/28 01:16:06;;;;;;;6.30;3.50;;;8.40;99.90;;;;;;5066099;28;20386;-81
2022/09/28 01:19:11;;;;;;;3.53;2.60;;;8.50;99.90;;;;;;5066111;28;20376;-80
2022/09/28 01:22:31;;;;;;;2.83;2.63;;;8.60;99.90;;;;;;5066643;28;20386;-80
2022/09/28 01:25:38;;;;;;;2.47;2.27;;;8.50;99.90;;;;;;5067169;28;20507;-81
2022/09/28 01:28:27;;;;;;;3.20;2.87;;;8.50;99.90;;;;;;5066496;28;20525;-80
2022/09/28 01:31:14;;;;;;;3.13;2.83;;;8.50;99.90;;;;;;5066184;28;20414;-80
2022/09/28 01:34:05;;;;;;;6.73;2.73;;;8.50;99.90;;;;;;5066949;28;20364;-80
2022/09/28 01:36:54;;;;;;;2.60;2.40;;;8.40;99.90;;;;;;5066856;28;20443;-80
2022/09/28 01:39:44;;;;;;;2.50;2.00;;;8.50;99.90;;;;;;5067046;28;20471;-80
2022/09/28 01:42:32;;;;;;;2.63;2.43;;;8.70;99.90;;;;;;5067035;28;20398;-79
2022/09/28 01:45:24;;;;;;;6.30;2.37;;;8.70;99.90;;;;;;5065761;28;20416;-82
2022/09/28 01:48:10;;;;;;;2.57;2.37;;;8.80;99.90;;;;;;5066824;28;20757;-81
2022/09/28 01:50:59;;;;;;;3.30;2.60;;;8.80;99.90;;;;;;5067715;28;20361;-81
2022/09/28 01:53:54;;;;;;;3.67;2.57;;;8.90;99.90;;;;;;5066846;28;20910;-81
2022/09/28 01:56:45;;;;;;;3.03;2.80;;;8.90;99.90;;;;;;5065161;28;20515;-82
2022/09/28 01:59:33;;;;;;;4.67;2.17;;;8.90;99.90;;;;;;5066692;28;20377;-81
2022/09/28 02:02:25;;;;;;;5.70;2.60;;;8.90;99.90;;;;;;5066117;28;20428;-81
2022/09/28 02:05:17;;;;;;;4.17;1.83;;;9.00;99.90;;;;;;5064346;28;20442;-80
2022/09/28 02:08:11;;;;;;;2.77;2.57;;;9.00;99.90;;;;;;5066372;28;20378;-80
2022/09/28 02:11:12;;;;;;;2.57;2.10;;;8.80;99.90;;;;;;5066411;28;20368;-82
2022/09/28 02:14:02;;;;;;;6.30;2.27;;;9.00;99.90;;;;;;5066062;28;20386;-81
2022/09/28 02:16:51;;;;;;;2.90;2.63;;;9.00;99.90;;;;;;5066381;28;20417;-81
2022/09/28 02:19:36;;;;;;;5.10;2.23;;;9.10;99.90;;;;;;5066492;28;20386;-81
2022/09/28 02:22:32;;;;;;;2.33;2.13;;;9.10;99.90;;;;;;5065543;28;20369;-81
2022/09/28 02:25:27;;;;;;;1.70;1.60;;;9.10;99.90;;;;;;5066224;28;20793;-81
2022/09/28 02:28:12;;;;;;;2.10;2.00;;;8.90;99.90;;;;;;5064943;28;20382;-80
2022/09/28 02:30:57;;;;;;;2.23;2.03;;;8.80;99.90;;;;;;5065024;28;20484;-80
2022/09/28 02:33:43;;;;;;;3.40;2.13;;;8.90;99.90;;;;;;5065911;28;20364;-80
2022/09/28 02:36:28;;;;;;;2.37;1.80;;;8.80;99.90;;;;;;5065230;28;20386;-81
2022/09/28 02:39:15;;;;;;;2.33;1.77;;;8.70;99.90;;;;;;5065623;28;20361;-80
2022/09/28 02:42:20;;;;;;;2.30;2.10;;;8.90;99.90;;;;;;5049850;28;20382;-81
2022/09/28 02:45:24;;;;;;;2.00;1.73;;;8.90;99.90;;;;;;5065371;28;20524;-81
2022/09/28 02:48:38;;;;;;;3.53;2.20;;;9.00;99.90;;;;;;5069485;28;20904;-78
2022/09/28 02:51:45;;;;;;;3.63;2.30;;;9.00;99.90;;;;;;5058041;28;20429;-81
2022/09/28 02:54:50;;;;;;;5.00;2.80;;;9.00;99.90;;;;;;5066021;28;20433;-81
2022/09/28 02:57:49;;;;;;;3.23;2.77;;;8.90;99.90;;;;;;5065801;28;20437;-80
2022/09/28 03:00:43;;;;;;;2.33;1.90;;;8.80;99.90;;;;;;5064941;28;20394;-82
2022/09/28 03:03:49;;;;;;;3.03;1.93;;;8.80;99.90;;;;;;5064959;28;20402;-81
2022/09/28 03:06:49;;;;;;;1.90;1.80;;;8.90;99.90;;;;;;5065422;28;20364;-81
2022/09/28 03:09:41;;;;;;;2.47;2.27;;;8.70;99.90;;;;;;5064962;28;20357;-80
2022/09/28 03:12:28;;;;;;;1.80;1.70;;;8.70;99.90;;;;;;5064885;28;20394;-81
2022/09/28 03:15:28;;;;;;;5.23;2.00;;;8.50;99.90;;;;;;5065060;28;20360;-81
2022/09/28 03:18:12;;;;;;;2.33;1.87;;;8.60;99.90;;;;;;5065128;28;20877;-80
2022/09/28 03:20:59;;;;;;;2.07;1.87;;;8.70;99.90;;;;;;5066078;28;20382;-81
2022/09/28 03:23:43;;;;;;;6.40;1.87;;;8.70;99.90;;;;;;5064228;28;20453;-81
2022/09/28 03:26:28;;;;;;;1.83;1.73;;;8.80;99.90;;;;;;5065226;28;20865;-81
2022/09/28 03:29:13;;;;;;;3.90;1.73;;;8.70;99.90;;;;;;5064971;28;20405;-80
2022/09/28 03:31:58;;;;;;;2.00;1.90;;;8.70;99.90;;;;;;5065048;28;20364;-80
2022/09/28 03:34:44;;;;;;;2.83;2.60;;;8.70;99.90;;;;;;5065346;28;20364;-81
2022/09/28 03:37:28;;;;;;;2.10;1.90;;;8.70;99.90;;;;;;5064342;28;20749;-80
2022/09/28 03:40:13;;;;;;;2.20;1.90;;;8.70;99.90;;;;;;5064763;28;20373;-81
2022/09/28 03:42:59;;;;;;;4.23;2.40;;;8.70;99.90;;;;;;5064416;28;20390;-81
2022/09/28 03:45:58;;;;;;;2.50;1.90;;;8.60;99.90;;;;;;5060788;28;20452;-80
2022/09/28 03:48:43;;;;;;;2.90;1.93;;;8.70;99.90;;;;;;5062816;28;20417;-80
2022/09/28 03:51:28;;;;;;;2.03;1.83;;;8.70;99.90;;;;;;5059348;28;20360;-81
2022/09/28 03:54:12;;;;;;;1.93;1.83;;;8.70;99.90;;;;;;5063981;28;20419;-81
2022/09/28 03:56:57;;;;;;;2.60;1.90;;;8.70;99.90;;;;;;5055596;28;20766;-81
2022/09/28 03:59:41;;;;;;;2.23;2.10;;;8.60;99.90;;;;;;5065082;28;20393;-81
2022/09/28 04:02:26;;;;;;;2.10;2.00;;;8.60;99.90;;;;;;5061414;28;20484;-81
2022/09/28 04:05:11;;;;;;;2.37;1.73;;;8.60;99.90;;;;;;5061654;28;20449;-81
2022/09/28 04:07:56;;;;;;;1.70;1.60;;;8.60;99.90;;;;;;5062320;28;20364;-80
2022/09/28 04:10:41;;;;;;;1.70;1.60;;;8.70;99.90;;;;;;5063049;28;20353;-80
2022/09/28 04:13:27;;;;;;;2.10;1.90;;;8.90;99.90;;;;;;5062707;28;20380;-80
2022/09/28 04:16:11;;;;;;;5.40;2.43;;;8.80;99.90;;;;;;5063208;28;20503;-81
2022/09/28 04:18:57;;;;;;;4.83;2.17;;;8.80;99.90;;;;;;5049338;28;20742;-81
2022/09/28 04:21:42;;;;;;;2.00;1.90;;;8.80;99.90;;;;;;5063037;28;20369;-80
2022/09/28 04:24:26;;;;;;;4.13;2.23;;;8.80;99.90;;;;;;5062686;28;20949;-79
2022/09/28 04:30:10;;;;;;;2.20;2.00;;;8.90;99.90;;;;;;5066942;28;20393;-80
2022/09/28 04:32:55;;;;;;;3.77;2.47;;;8.90;99.90;;;;;;5067402;28;20397;-80
2022/09/28 04:35:39;;;;;;;8.83;1.70;;;8.80;99.90;;;;;;5069003;28;20398;-80
2022/09/28 04:38:24;;;;;;;1.97;1.87;;;8.90;99.90;;;;;;5068917;28;20885;-80
2022/09/28 04:41:10;;;;;;;4.90;2.30;;;8.90;99.90;;;;;;5069236;28;20906;-81
2022/09/28 04:43:55;;;;;;;2.67;2.47;;;9.00;99.90;;;;;;5069200;28;20424;-82
2022/09/28 04:46:39;;;;;;;2.13;2.00;;;8.90;99.90;;;;;;5068699;28;20759;-80
2022/09/28 04:49:24;;;;;;;2.60;2.40;;;8.80;99.90;;;;;;5068898;28;20360;-79
2022/09/28 04:52:09;;;;;;;1.77;1.60;;;8.80;99.90;;;;;;5069070;28;20879;-81
2022/09/28 04:54:53;;;;;;;2.30;2.10;;;8.90;99.90;;;;;;5069844;28;20384;-81
2022/09/28 04:57:39;;;;;;;5.13;2.17;;;9.00;99.90;;;;;;5068704;28;20435;-81
2022/09/28 05:00:24;;;;;;;2.27;2.00;;;9.10;99.90;;;;;;5067200;28;20404;-81
2022/09/28 05:03:08;;;;;;;4.00;2.10;;;8.90;99.90;;;;;;5062794;28;20400;-80
2022/09/28 05:05:53;;;;;;;2.33;2.13;;;8.90;99.90;;;;;;5063410;28;20437;-81
2022/09/28 05:08:38;;;;;;;2.47;2.23;;;9.00;99.90;;;;;;5053713;28;20466;-80
2022/09/28 05:11:23;;;;;;;2.17;1.97;;;9.30;99.90;;;;;;5064767;28;20372;-80
2022/09/28 05:14:07;;;;;;;2.37;2.17;;;9.20;99.90;;;;;;5050853;28;20409;-80
2022/09/28 05:16:52;;;;;;;3.93;2.20;;;9.10;99.90;;;;;;5064895;28;20404;-80
2022/09/28 05:19:36;;;;;;;2.33;2.13;;;9.10;99.90;;;;;;5063512;28;20391;-80
2022/09/28 05:22:21;;;;;;;2.50;2.30;;;9.00;99.90;;;;;;5067196;28;20410;-80
2022/09/28 05:25:06;;;;;;;2.10;2.00;;;9.10;99.90;;;;;;5055072;28;20459;-80
2022/09/28 05:27:55;;;;;;;4.87;2.00;;;9.20;99.90;;;;;;5073169;28;20423;-80
2022/09/28 05:30:40;;;;;;;2.23;2.03;;;9.20;99.90;;;;;;5056290;28;20740;-79
2022/09/28 05:33:25;;;;;;;2.30;2.10;;;9.30;99.90;;;;;;5065006;28;20556;-79
2022/09/28 05:36:10;;;;;;;1.93;1.73;;;9.40;99.90;;;;;;5066263;28;20372;-81
2022/09/28 05:38:54;;;;;;;2.03;1.93;;;9.40;99.90;;;;;;5055628;28;20373;-79
2022/09/28 05:41:38;;;;;;;5.07;2.50;;;9.40;99.90;;;;;;5058772;28;20410;-80
2022/09/28 05:44:24;;;;;;;3.37;2.43;;;9.50;99.90;;;;;;5057369;28;20500;-79
2022/09/28 05:47:09;;;;;;;4.30;2.77;;;9.40;99.90;;;;;;5055539;28;20461;-81
2022/09/28 05:49:54;;;;;;;2.57;2.37;;;9.50;99.90;;;;;;5061536;28;20548;-81
2022/09/28 05:52:38;;;;;;;2.53;2.33;;;9.50;99.90;;;;;;5054389;28;20407;-81
2022/09/28 05:55:23;;;;;;;5.73;2.50;;;9.60;99.90;;;;;;5055961;28;20443;-81
2022/09/28 05:58:08;;;;;;;2.33;2.13;;;9.50;99.90;;;;;;5058308;28;20432;-81
2022/09/28 06:00:55;;;;;;;2.20;2.10;;;9.50;99.90;;;;;;5054392;28;20489;-79
2022/09/28 06:03:39;;;;;;;2.33;2.13;;;9.60;99.90;;;;;;5056332;28;20437;-81
2022/09/28 06:06:24;;;;;;;2.90;2.30;;;9.60;99.90;;;;;;5056309;28;20486;-81
2022/09/28 06:09:09;;;;;;;2.83;2.63;;;9.50;99.90;;;;;;5061602;28;20420;-80
2022/09/28 06:11:53;;;;;;;2.63;2.40;;;9.50;99.90;;;;;;5061296;28;20525;-79
2022/09/28 06:14:39;;;;;;;3.40;3.10;;;9.40;99.90;;;;;;5047801;28;20901;-81
2022/09/28 06:17:24;;;;;;;3.20;2.90;;;9.60;99.90;;;;;;5062049;28;20488;-79
2022/09/28 06:20:10;;;;;;;4.70;2.63;;;9.70;99.90;;;;;;5068436;28;20456;-81
2022/09/28 06:22:54;;;;;;;2.43;2.23;;;9.60;99.90;;;;;;5061126;28;20420;-80
2022/09/28 06:25:39;;;;;;;2.30;2.00;;;9.80;99.90;;;;;;5058472;28;20440;-81
2022/09/28 06:28:25;;;;;;;2.70;2.50;;;9.80;99.90;;;;;;5064772;28;20405;-80
2022/09/28 06:31:10;;;;;;;2.33;2.13;;;10.00;99.90;;;;;;5067466;28;20408;-79
2022/09/28 06:33:54;;;;;;;2.33;2.13;;;9.80;99.90;;;;;;5065097;28;20389;-83
2022/09/28 06:36:39;;;;;;;2.07;1.87;;;9.90;99.90;;;;;;5064202;28;20400;-79
2022/09/28 06:39:24;;;;;;;2.73;2.37;;;10.00;99.90;;;;;;5064957;28;20392;-78
2022/09/28 06:42:09;;;;;;;2.20;2.00;;;10.00;99.90;;;;;;5066903;28;20457;-78
2022/09/28 06:44:53;;;;;;;2.30;2.17;;;9.90;99.90;;;;;;5067159;28;20440;-79
2022/09/28 06:47:38;;;;;;;2.37;2.07;;;10.00;99.90;;;;;;5044587;28;20536;-77
2022/09/28 06:50:24;;;;;;;2.77;2.40;;;9.90;99.90;;;;;;5043346;28;20433;-78
2022/09/28 06:53:12;;;;;;;2.27;2.10;;;9.90;99.90;;;;;;5030132;28;20432;-79
2022/09/28 06:55:57;;;;;;;1.80;1.70;;;10.10;99.90;;;;;;5043860;28;20430;-78
2022/09/28 06:58:41;;;;;;;2.17;2.03;;;9.90;99.90;;;;;;5039279;28;20470;-78
2022/09/28 07:01:26;;;;;;;2.60;1.83;;;9.80;99.90;;;;;;5041183;28;21120;-79
2022/09/28 07:04:10;;;;;;;5.97;2.10;;;10.00;99.90;;;;;;5032562;28;20531;-79
2022/09/28 07:06:55;;;;;;;2.60;2.40;;;10.20;99.90;;;;;;5034915;28;20508;-78
2022/09/28 07:09:40;;;;;;;2.03;1.90;;;10.30;99.90;;;;;;5039209;28;20451;-80
2022/09/28 07:12:25;;;;;;;1.67;1.57;;;10.60;99.90;;;;;;5042419;28;21169;-78
2022/09/28 07:15:11;;;;;;;1.50;1.40;;;10.60;99.90;;;;;;5038014;28;20904;-80
2022/09/28 07:17:58;;;;;;;2.70;1.30;;;10.70;99.90;;;;;;5037787;28;20491;-78
2022/09/28 07:20:42;;;;;;;1.30;1.20;;;10.90;99.90;;;;;;5042739;28;20511;-79
2022/09/28 07:23:28;;;;;;;1.50;1.40;;;11.00;99.90;;;;;;5044132;28;20535;-78
2022/09/28 07:26:13;;;;;;;1.63;1.30;;;11.10;99.90;;;;;;5049056;28;20448;-81
2022/09/28 07:28:58;;;;;;;1.67;1.10;;;11.20;99.90;;;;;;5047403;28;20713;-78
2022/09/28 07:31:44;;;;;;;2.30;1.50;;;11.20;99.90;;;;;;5041833;28;20550;-78
2022/09/28 07:34:28;;;;;;;2.27;2.10;;;11.20;99.90;;;;;;5045700;28;20469;-77
2022/09/28 07:37:14;;;;;;;3.10;1.53;;;11.20;99.90;;;;;;5045767;28;20511;-77
2022/09/28 07:43:04;;;;;;;2.07;1.40;;;11.30;99.90;;;;;;5047992;28;20537;-80
2022/09/28 07:45:51;;;;;;;1.07;0.97;;;11.40;99.90;;;;;;5047230;28;20558;-78
2022/09/28 07:48:40;;;;;;;1.40;1.20;;;11.60;99.90;;;;;;5035098;28;21014;-81
2022/09/28 07:51:24;;;;;;;1.27;1.17;;;11.70;99.90;;;;;;5015883;28;20450;-79
2022/09/28 07:54:09;;;;;;;2.90;1.23;;;11.90;99.90;;;;;;5045023;28;20461;-77
2022/09/28 07:56:55;;;;;;;1.50;1.30;;;12.10;99.90;;;;;;5046462;28;20464;-78
2022/09/28 07:59:39;;;;;;;1.83;1.30;;;11.90;99.90;;;;;;5047016;28;20519;-78
2022/09/28 08:02:24;;;;;;;4.40;1.40;;;11.70;99.90;;;;;;5044167;28;21054;-78
2022/09/28 08:05:09;;;;;;;1.23;1.13;;;11.60;99.90;;;;;;5047120;28;20481;-81
2022/09/28 08:07:56;;;;;;;1.63;1.40;;;11.60;99.90;;;;;;5040203;28;20447;-78
2022/09/28 08:10:42;;;;;;;1.50;1.27;;;11.50;99.90;;;;;;5050601;28;20538;-77
2022/09/28 08:13:27;;;;;;;2.10;1.13;;;11.50;99.90;;;;;;5054238;28;20531;-77
2022/09/28 08:16:12;;;;;;;1.60;1.50;;;11.50;99.90;;;;;;5054051;28;20426;-77
2022/09/28 08:18:58;;;;;;;1.57;1.40;;;11.60;99.90;;;;;;5056214;28;20479;-79
2022/09/28 08:21:44;;;;;;;1.57;1.40;;;11.70;99.90;;;;;;5045472;28;20434;-78
2022/09/28 08:24:29;;;;;;;1.30;1.20;;;11.60;99.90;;;;;;5053991;28;20545;-79
2022/09/28 08:27:15;;;;;;;2.00;1.40;;;11.50;99.90;;;;;;5045851;28;20513;-78
2022/09/28 08:30:00;;;;;;;3.83;1.70;;;11.60;99.90;;;;;;5049188;28;20457;-78
2022/09/28 08:32:48;;;;;;;1.30;1.20;;;11.80;99.90;;;;;;5043280;28;20487;-80
2022/09/28 08:35:32;;;;;;;2.60;1.33;;;11.90;99.90;;;;;;5044317;28;20830;-79
2022/09/28 08:38:17;;;;;;;1.17;1.07;;;11.90;99.90;;;;;;5044476;28;21035;-79
2022/09/28 08:41:38;;;;;;;1.10;1.00;;;11.90;99.90;;;;;;5047884;28;20968;-79
2022/09/28 08:44:25;;;;;;;1.20;1.10;;;11.60;99.90;;;;;;5044663;28;20495;-77
2022/09/28 08:50:27;;;;;;;1.37;1.27;;;11.90;99.90;;;;;;5044200;28;20454;-80
2022/09/28 08:53:36;;;;;;;1.40;1.30;;;12.10;99.90;;;;;;5042782;28;20425;-79
2022/09/28 08:56:46;;;;;;;3.30;1.67;;;12.20;99.90;;;;;;5037579;28;20559;-80
2022/09/28 08:59:45;;;;;;;2.27;1.50;;;12.70;99.90;;;;;;5047978;28;20429;-79
2022/09/28 09:02:35;;;;;;;1.37;1.27;;;12.70;99.90;;;;;;5044785;28;20467;-79
2022/09/28 09:05:23;;;;;;;1.90;1.80;;;12.70;99.90;;;;;;5024527;28;20579;-78
2022/09/28 09:08:25;;;;;;;1.30;1.20;;;12.60;99.90;;;;;;5020803;28;20413;-81
2022/09/28 09:11:25;;;;;;;1.60;1.50;;;12.70;99.90;;;;;;5015030;28;20460;-79
2022/09/28 09:14:38;;;;;;;1.73;1.63;;;12.50;99.90;;;;;;5012064;28;20477;-80
2022/09/28 09:17:38;;;;;;;1.63;1.53;;;12.20;99.90;;;;;;5028666;28;20454;-80
2022/09/28 09:20:43;;;;;;;1.90;1.77;;;12.10;99.90;;;;;;5001668;28;20449;-79
2022/09/28 09:23:42;;;;;;;2.60;2.00;;;14.10;99.90;;;;;;5024389;28;20412;-81
2022/09/28 09:26:37;;;;;;;1.87;1.77;;;18.50;99.90;;;;;;5025106;28;20931;-78
2022/09/28 09:29:33;;;;;;;2.50;1.57;;;18.30;99.90;;;;;;5029461;28;20480;-81
2022/09/28 09:32:56;;;;;;;3.27;1.57;;;18.90;99.90;;;;;;5001545;28;20538;-77
2022/09/28 09:36:07;;;;;;;1.87;1.70;;;16.90;99.90;;;;;;5037255;28;20524;-77
2022/09/28 09:39:15;;;;;;;2.10;1.90;;;15.80;99.90;;;;;;5045549;28;20457;-79
2022/09/28 09:42:16;;;;;;;1.60;1.50;;;14.70;99.90;;;;;;5047213;28;20437;-79
2022/09/28 09:45:37;;;;;;;5.57;1.83;;;14.10;99.90;;;;;;5038665;28;20574;-79
2022/09/28 09:48:39;;;;;;;1.90;1.80;;;14.30;99.90;;;;;;5053378;28;20968;-79
2022/09/28 09:51:39;;;;;;;2.50;1.67;;;15.30;99.90;;;;;;5054955;28;20511;-78
2022/09/28 09:54:36;;;;;;;2.53;1.70;;;14.60;99.90;;;;;;5034548;28;20430;-78
2022/09/28 09:57:29;;;;;;;1.77;1.50;;;13.80;99.90;;;;;;5047742;28;20756;-78
2022/09/28 10:00:15;;;;;;;1.80;1.70;;;13.50;99.90;;;;;;5043053;28;21116;-79
2022/09/28 10:03:01;;;;;;;3.57;1.90;;;13.30;99.90;;;;;;5042003;28;20810;-81
2022/09/28 10:05:54;;;;;;;2.20;2.00;;;13.10;99.90;;;;;;5040884;28;20649;-78
2022/09/28 10:08:47;;;;;;;1.70;1.60;;;12.80;99.90;;;;;;5045414;28;20434;-80
2022/09/28 10:11:37;;;;;;;1.90;1.70;;;12.70;99.90;;;;;;5039504;28;20542;-79
2022/09/28 10:14:23;;;;;;;1.77;1.67;;;13.10;99.90;;;;;;5047103;28;20214;-79
2022/09/28 10:17:11;;;;;;;1.70;1.60;;;13.10;99.90;;;;;;5050246;28;20437;-79
2022/09/28 10:19:55;;;;;;;2.20;1.70;;;13.00;99.90;;;;;;5034288;28;20484;-79
2022/09/28 10:22:40;;;;;;;1.67;1.57;;;13.30;99.90;;;;;;5020077;28;20458;-78
2022/09/28 10:25:24;;;;;;;2.27;1.50;;;13.30;99.90;;;;;;5047325;28;20512;-78
2022/09/28 10:28:17;;;;;;;2.80;2.10;;;13.30;99.90;;;;;;5042372;28;20781;-78
2022/09/28 10:31:33;;;;;;;1.97;1.87;;;13.20;99.90;;;;;;5045921;28;20511;-78
2022/09/28 10:34:27;;;;;;;2.27;1.90;;;13.10;99.90;;;;;;5044249;28;20516;-80
2022/09/28 10:37:12;;;;;;;2.10;1.90;;;13.80;99.90;;;;;;5035981;28;20457;-78
2022/09/28 10:39:57;;;;;;;3.17;1.80;;;14.10;99.90;;;;;;5031043;28;20525;-77
2022/09/28 10:42:41;;;;;;;2.10;1.90;;;14.00;99.90;;;;;;5047901;28;20539;-81
2022/09/28 10:45:30;;;;;;;3.30;1.90;;;13.80;99.90;;;;;;5044488;28;20536;-77
2022/09/28 10:48:19;;;;;;;2.17;1.80;;;13.40;99.90;;;;;;5048390;28;20542;-79
2022/09/28 10:51:07;;;;;;;1.77;1.67;;;13.20;99.90;;;;;;5042166;28;20492;-77
2022/09/28 10:54:00;;;;;;;2.07;1.87;;;14.10;99.90;;;;;;5045689;28;20467;-76
2022/09/28 10:56:46;;;;;;;1.80;1.70;;;15.20;99.90;;;;;;5045715;28;20808;-80
2022/09/28 10:59:46;;;;;;;1.80;1.70;;;15.80;99.90;;;;;;5046437;28;20429;-79
2022/09/28 11:02:34;;;;;;;1.83;1.73;;;15.80;99.90;;;;;;5044481;28;20528;-80
2022/09/28 11:05:23;;;;;;;1.47;1.37;;;15.80;99.90;;;;;;5032376;28;21750;-80
2022/09/28 11:08:15;;;;;;;1.80;1.70;;;15.50;99.90;;;;;;5042751;28;20441;-77
2022/09/28 11:11:03;;;;;;;2.17;1.90;;;15.30;99.90;;;;;;5040907;28;20517;-79
2022/09/28 11:13:56;;;;;;;1.50;1.40;;;15.30;99.90;;;;;;5044189;28;20426;-78
2022/09/28 11:16:40;;;;;;;1.73;1.50;;;15.20;99.90;;;;;;5041232;28;20429;-81
2022/09/28 11:19:28;;;;;;;1.60;1.50;;;15.10;99.90;;;;;;5046324;28;20564;-81
2022/09/28 11:22:27;;;;;;;1.87;1.60;;;15.40;99.90;;;;;;5049164;28;20945;-79
2022/09/28 11:25:23;;;;;;;3.10;2.37;;;16.10;99.90;;;;;;5052162;28;20473;-79
2022/09/28 11:28:23;;;;;;;2.87;2.67;;;17.60;99.90;;;;;;5049964;28;20434;-82
2022/09/28 11:31:10;;;;;;;1.60;1.40;;;18.20;99.90;;;;;;5046012;28;20495;-78
2022/09/28 11:34:07;;;;;;;1.40;1.30;;;19.30;99.90;;;;;;5048115;28;20429;-79
2022/09/28 11:37:26;;;;;;;1.70;1.30;;;20.40;96.80;;;;;;5051958;28;20431;-79
2022/09/28 11:40:40;;;;;;;1.70;1.50;;;20.70;90.80;;;;;;5055243;28;20430;-80
2022/09/28 11:43:45;;;;;;;1.47;1.33;;;19.90;91.60;;;;;;5050263;28;20468;-80
2022/09/28 11:46:49;;;;;;;3.67;1.50;;;18.80;92.90;;;;;;5052998;28;20931;-79
2022/09/28 11:49:44;;;;;;;1.70;1.37;;;17.70;97.80;;;;;;5054472;28;20472;-78
2022/09/28 11:52:42;;;;;;;2.40;1.70;;;16.70;99.90;;;;;;5056605;28;20429;-79
2022/09/28 11:55:45;;;;;;;2.07;1.97;;;15.30;99.90;;;;;;5050367;28;20438;-81
2022/09/28 11:58:36;;;;;;;2.83;2.47;;;15.00;99.90;;;;;;5055736;28;20541;-79
2022/09/28 12:01:30;;;;;;;1.70;1.60;;;14.80;99.90;;;;;;5059589;28;20528;-79
2022/09/28 12:04:22;;;;;;;1.37;1.27;;;15.10;99.90;;;;;;5050985;28;20457;-80
2022/09/28 12:07:15;;;;;;;1.60;1.50;;;15.50;99.90;;;;;;5051565;28;20417;-81
2022/09/28 12:10:30;;;;;;;1.93;1.57;;;16.30;99.90;;;;;;5053857;28;20452;-81
2022/09/28 12:13:21;;;;;;;4.50;1.47;;;16.80;99.90;;;;;;5049984;28;20500;-81
2022/09/28 12:16:13;;;;;;;2.30;1.70;;;17.00;99.90;;;;;;5061760;28;20452;-81
2022/09/28 12:19:19;;;;;;;1.43;1.33;;;16.40;99.90;;;;;;5048699;28;20484;-80
2022/09/28 12:22:17;;;;;;;2.00;1.30;;;16.20;99.90;;;;;;5035670;28;20424;-80
2022/09/28 12:25:09;;;;;;;1.40;1.30;;;17.00;99.90;;;;;;5049299;28;20560;-80
2022/09/28 12:28:06;;;;;;;1.53;1.43;;;18.00;99.90;;;;;;5035167;28;20422;-80
2022/09/28 12:30:52;;;;;;;1.17;1.07;;;19.50;99.00;;;;;;5047054;28;20429;-80
2022/09/28 12:33:38;;;;;;;1.30;1.20;;;20.20;98.40;;;;;;5043489;28;20495;-80
2022/09/28 12:36:46;;;;;;;1.80;1.70;;;20.90;92.60;;;;;;5050120;28;20513;-81
2022/09/28 12:39:58;;;;;;;1.30;1.20;;;19.80;93.10;;;;;;5049789;28;20475;-79
2022/09/28 12:43:02;;;;;;;2.83;1.20;;;20.60;91.30;;;;;;5045280;28;20448;-79
2022/09/28 12:46:12;;;;;;;1.77;1.20;;;21.70;87.00;;;;;;5046859;28;20525;-80
2022/09/28 12:49:17;;;;;;;1.67;1.33;;;21.20;86.50;;;;;;5051420;28;20426;-80
2022/09/28 12:52:18;;;;;;;1.43;1.33;;;21.40;87.50;;;;;;5050582;28;20517;-79
2022/09/28 12:55:23;;;;;;;3.50;1.13;;;21.60;86.90;;;;;;5046377;28;20429;-80
2022/09/28 12:58:29;;;;;;;1.50;1.40;;;22.20;82.90;;;;;;5054684;28;20523;-81
2022/09/28 13:01:37;;;;;;;3.73;1.10;;;22.90;80.80;;;;;;5053826;28;20468;-81
2022/09/28 13:04:58;;;;;;;3.43;1.20;;;23.50;75.80;;;;;;5040476;28;20464;-81
2022/09/28 13:08:09;;;;;;;1.63;1.53;;;22.10;77.50;;;;;;5057563;28;20496;-80
2022/09/28 13:11:22;;;;;;;1.40;1.30;;;21.20;77.10;;;;;;5048903;28;20794;-79
2022/09/28 13:14:29;;;;;;;1.23;1.13;;;19.90;81.70;;;;;;5053017;28;20519;-79
2022/09/28 13:17:30;;;;;;;1.43;1.30;;;19.30;84.30;;;;;;5055382;28;20449;-80
2022/09/28 13:20:46;;;;;;;2.60;1.30;;;19.40;85.00;;;;;;5048536;28;20473;-80
2022/09/28 13:23:41;;;;;;;1.40;1.30;;;20.80;84.80;;;;;;5052149;28;20487;-80
2022/09/28 13:26:31;;;;;;;1.20;1.10;;;21.40;79.20;;;;;;5046136;28;20987;-81
2022/09/28 13:29:18;;;;;;;1.70;1.27;;;22.00;77.30;;;;;;5048901;28;20567;-81
2022/09/28 13:32:06;;;;;;;3.20;1.50;;;21.40;78.00;;;;;;5045473;28;20456;-81
2022/09/28 13:34:53;;;;;;;1.30;1.20;;;21.40;77.90;;;;;;5053676;28;20495;-80
2022/09/28 13:37:38;;;;;;;1.50;1.40;;;20.50;79.30;;;;;;5056560;28;20429;-81
2022/09/28 13:40:58;;;;;;;1.30;1.20;;;19.50;82.30;;;;;;5046607;28;20422;-81
2022/09/28 13:44:08;;;;;;;2.80;1.60;;;18.60;85.80;;;;;;5049546;28;20422;-80
2022/09/28 13:47:10;;;;;;;6.90;1.40;;;17.80;88.20;;;;;;5048385;28;20483;-80
2022/09/28 13:50:11;;;;;;;1.30;1.20;;;18.70;91.70;;;;;;5047767;28;20526;-81
2022/09/28 13:53:28;;;;;;;1.23;1.13;;;20.00;86.20;;;;;;5050310;28;20953;-81
2022/09/28 13:56:41;;;;;;;2.27;1.10;;;20.80;78.20;;;;;;5054492;28;20929;-81
2022/09/28 13:59:29;;;;;;;1.93;1.50;;;20.70;81.10;;;;;;5060078;28;20457;-81
2022/09/28 14:02:29;;;;;;;1.47;1.37;;;21.80;76.40;;;;;;5054838;28;20563;-81
2022/09/28 14:05:49;;;;;;;1.87;1.00;;;22.50;69.90;;;;;;5054296;28;20461;-78
2022/09/28 14:08:38;;;;;;;1.30;1.20;;;22.80;70.70;;;;;;5049785;28;21294;-80
2022/09/28 14:11:59;;;;;;;3.03;1.00;;;22.90;67.70;;;;;;5059644;28;20849;-80
2022/09/28 14:14:48;;;;;;;2.80;1.40;;;22.70;67.20;;;;;;5059811;28;20422;-81
2022/09/28 14:17:51;;;;;;;3.10;1.60;;;22.50;67.10;;;;;;5064324;28;20413;-80
2022/09/28 14:20:36;;;;;;;1.40;1.27;;;22.20;66.40;;;;;;5055245;28;20421;-80
2022/09/28 14:23:37;;;;;;;1.67;1.57;;;22.20;68.50;;;;;;5045554;28;20418;-81
2022/09/28 14:26:49;;;;;;;1.50;1.20;;;22.00;66.50;;;;;;5044889;28;20457;-79
2022/09/28 14:29:37;;;;;;;1.57;1.40;;;21.50;69.60;;;;;;5041507;28;20444;-80
2022/09/28 14:32:24;;;;;;;1.73;1.23;;;21.60;69.80;;;;;;5039790;28;20458;-80
2022/09/28 14:35:24;;;;;;;1.13;1.03;;;21.60;68.80;;;;;;5040696;28;20442;-80
2022/09/28 14:41:35;;;;;;;1.50;1.10;;;20.00;69.60;;;;;;5041572;28;20989;-81
2022/09/28 14:44:20;;;;;;;1.40;1.30;;;20.00;71.80;;;;;;5048815;28;20520;-81
2022/09/28 14:47:32;;;;;;;1.93;1.73;;;20.00;72.20;;;;;;5037337;28;20453;-80
2022/09/28 14:50:24;;;;;;;1.70;1.50;;;19.80;74.20;;;;;;5041534;28;20442;-81
2022/09/28 14:53:18;;;;;;;3.30;1.90;;;20.00;73.20;;;;;;5048297;28;20425;-81
2022/09/28 14:56:07;;;;;;;1.77;1.57;;;20.40;73.10;;;;;;5046139;28;20822;-78
2022/09/28 14:58:56;;;;;;;5.80;1.93;;;20.30;73.90;;;;;;5020471;28;20453;-81
2022/09/28 15:01:48;;;;;;;1.23;1.13;;;21.00;73.00;;;;;;5045211;28;20508;-81
2022/09/28 15:04:37;;;;;;;1.37;1.27;;;21.60;70.90;;;;;;5042518;28;20500;-82
2022/09/28 15:07:27;;;;;;;1.90;1.67;;;21.60;71.70;;;;;;5039818;28;20437;-81
2022/09/28 15:10:33;;;;;;;1.80;1.43;;;21.80;70.20;;;;;;5042884;28;20420;-81